Time;durP1;ratioP1;P1;durP2;ratioP2;P2;SDS_P1;SDS_P2;PMS_P1;PMS_P2;Temp;Humidity;BMP_temperature;BMP_pressure;BME280_temperature;BME280_humidity;BME280_pressure;Samples;Min_cycle;Max_cycle;Signal;HPM_P1;HPM_P2
2021/08/26 00:07:02;;;;;;;9.10;5.93;;;;;;;;;;4983581;28;20070;-75
2021/08/26 00:09:29;;;;;;;6.97;5.07;;;;;;;;;;4982538;28;20046;-76
2021/08/26 00:11:57;;;;;;;7.50;4.55;;;;;;;;;;4978315;28;20045;-76
2021/08/26 00:14:24;;;;;;;7.95;5.00;;;;;;;;;;4981240;28;20121;-76
2021/08/26 00:16:52;;;;;;;6.03;4.50;;;;;;;;;;4985093;28;20134;-75
2021/08/26 00:19:20;;;;;;;7.80;5.68;;;;;;;;;;4984249;28;20046;-75
2021/08/26 00:21:47;;;;;;;8.82;6.75;;;;;;;;;;4982733;28;20453;-76
2021/08/26 00:24:14;;;;;;;8.07;6.88;;;;;;;;;;4984684;28;20039;-76
2021/08/26 00:26:41;;;;;;;8.80;5.88;;;;;;;;;;4998804;28;20532;-76
2021/08/26 00:29:09;;;;;;;8.82;7.45;;;;;;;;;;4984285;28;20550;-76
2021/08/26 00:31:36;;;;;;;8.15;6.10;;;;;;;;;;4983158;28;20047;-76
2021/08/26 00:34:03;;;;;;;9.27;6.60;;;;;;;;;;4984078;28;20161;-76
2021/08/26 00:36:30;;;;;;;7.22;5.50;;;;;;;;;;4979511;28;20050;-76
2021/08/26 00:38:58;;;;;;;7.85;5.28;;;;;;;;;;4984589;28;20042;-76
2021/08/26 00:41:27;;;;;;;8.95;8.05;;;;;;;;;;4982123;28;20050;-76
2021/08/26 00:43:56;;;;;;;7.35;6.65;;;;;;;;;;4996702;28;20046;-76
2021/08/26 00:46:26;;;;;;;8.23;7.43;;;;;;;;;;4982726;28;20044;-77
2021/08/26 00:48:53;;;;;;;8.20;4.63;;;;;;;;;;4974660;28;20073;-76
2021/08/26 00:51:20;;;;;;;8.10;4.65;;;;;;;;;;4960594;28;20101;-77
2021/08/26 00:53:48;;;;;;;6.25;3.45;;;;;;;;;;4965896;28;20126;-76
2021/08/26 00:56:16;;;;;;;5.30;2.78;;;;;;;;;;4971374;28;20054;-77
2021/08/26 00:58:49;;;;;;;6.00;3.72;;;;;;;;;;4980985;28;20108;-76
2021/08/26 01:01:29;;;;;;;5.65;3.33;;;;;;;;;;4984463;28;20042;-76
2021/08/26 01:04:31;;;;;;;4.93;2.58;;;;;;;;;;4984612;28;20046;-76
2021/08/26 01:07:10;;;;;;;5.65;3.28;;;;;;;;;;4979815;28;20432;-76
2021/08/26 01:09:46;;;;;;;7.72;4.82;;;;;;;;;;4996903;28;20046;-76
2021/08/26 01:12:26;;;;;;;11.73;8.27;;;;;;;;;;4968725;28;20121;-76
2021/08/26 01:14:55;;;;;;;6.40;3.38;;;;;;;;;;4971065;28;20054;-76
2021/08/26 01:17:24;;;;;;;6.97;4.43;;;;;;;;;;4971120;28;20034;-76
2021/08/26 01:19:52;;;;;;;6.30;2.78;;;;;;;;;;4960215;28;20038;-77
2021/08/26 01:22:20;;;;;;;4.32;2.17;;;;;;;;;;4964720;28;20131;-76
2021/08/26 01:24:54;;;;;;;3.90;2.17;;;;;;;;;;4963418;28;20053;-76
2021/08/26 01:27:23;;;;;;;7.55;4.45;;;;;;;;;;4962233;28;20039;-76
2021/08/26 01:29:53;;;;;;;13.57;12.30;;;;;;;;;;4965135;28;20053;-76
2021/08/26 01:32:21;;;;;;;12.77;10.68;;;;;;;;;;4982095;28;20046;-77
2021/08/26 01:34:51;;;;;;;5.20;3.65;;;;;;;;;;4992477;28;20536;-76
2021/08/26 01:37:20;;;;;;;6.00;3.75;;;;;;;;;;4994940;28;20039;-76
2021/08/26 01:39:54;;;;;;;6.20;4.10;;;;;;;;;;4960416;28;20133;-77
2021/08/26 01:42:26;;;;;;;9.02;4.43;;;;;;;;;;4977097;28;20049;-76
2021/08/26 01:44:57;;;;;;;8.73;6.20;;;;;;;;;;4962347;28;20494;-77
2021/08/26 01:47:24;;;;;;;8.18;6.03;;;;;;;;;;4963958;28;20043;-76
2021/08/26 01:49:55;;;;;;;6.70;4.10;;;;;;;;;;4964102;28;20042;-77
2021/08/26 01:52:24;;;;;;;8.23;5.18;;;;;;;;;;4964139;28;20458;-77
2021/08/26 01:54:54;;;;;;;20.88;14.90;;;;;;;;;;4969239;28;20042;-76
2021/08/26 01:57:23;;;;;;;21.52;15.93;;;;;;;;;;4971937;28;20075;-78
2021/08/26 01:59:50;;;;;;;16.80;11.73;;;;;;;;;;4963479;28;20517;-79
2021/08/26 02:02:18;;;;;;;7.72;5.18;;;;;;;;;;4963175;28;20043;-79
2021/08/26 02:04:46;;;;;;;10.82;6.55;;;;;;;;;;4978337;28;20047;-78
2021/08/26 02:07:13;;;;;;;9.20;6.00;;;;;;;;;;4970429;28;20053;-78
2021/08/26 02:09:41;;;;;;;7.47;5.28;;;;;;;;;;4976833;28;20042;-78
2021/08/26 02:12:08;;;;;;;9.25;6.68;;;;;;;;;;4983614;28;20077;-78
2021/08/26 02:14:38;;;;;;;10.73;5.95;;;;;;;;;;4978599;28;20058;-78
2021/08/26 02:17:05;;;;;;;6.55;5.47;;;;;;;;;;4968455;28;20038;-78
2021/08/26 02:19:33;;;;;;;5.47;3.35;;;;;;;;;;4973498;28;20488;-77
2021/08/26 02:22:01;;;;;;;5.70;2.50;;;;;;;;;;4982412;28;20104;-78
2021/08/26 02:24:29;;;;;;;4.28;2.47;;;;;;;;;;4983206;28;20069;-77
2021/08/26 02:26:56;;;;;;;6.88;4.60;;;;;;;;;;4978932;28;20049;-78
2021/08/26 02:29:24;;;;;;;4.85;3.25;;;;;;;;;;4981061;28;20046;-78
2021/08/26 02:31:51;;;;;;;8.80;5.80;;;;;;;;;;4983222;28;20069;-78
2021/08/26 02:34:18;;;;;;;7.03;4.07;;;;;;;;;;4981802;28;20039;-78
2021/08/26 02:36:45;;;;;;;8.23;4.47;;;;;;;;;;4983854;28;20254;-78
2021/08/26 02:39:12;;;;;;;6.38;3.72;;;;;;;;;;4994480;28;20045;-76
2021/08/26 02:41:44;;;;;;;5.95;3.15;;;;;;;;;;4979777;28;20464;-76
2021/08/26 02:44:11;;;;;;;7.32;2.83;;;;;;;;;;4982948;28;20525;-77
2021/08/26 02:46:38;;;;;;;4.00;1.98;;;;;;;;;;4981458;28;20050;-75
2021/08/26 02:49:05;;;;;;;4.15;2.78;;;;;;;;;;4983511;28;20046;-76
2021/08/26 02:51:33;;;;;;;5.47;3.50;;;;;;;;;;4981030;28;20969;-75
2021/08/26 02:54:00;;;;;;;6.65;3.80;;;;;;;;;;4979726;28;20046;-75
2021/08/26 02:56:28;;;;;;;9.60;5.57;;;;;;;;;;4974522;28;20034;-76
2021/08/26 02:58:55;;;;;;;9.93;6.10;;;;;;;;;;4992426;28;20054;-76
2021/08/26 03:01:25;;;;;;;6.50;4.03;;;;;;;;;;4981532;28;20042;-76
2021/08/26 03:03:53;;;;;;;4.90;2.78;;;;;;;;;;4979138;28;20045;-77
2021/08/26 03:06:20;;;;;;;4.93;3.20;;;;;;;;;;4983289;28;20034;-77
2021/08/26 03:08:47;;;;;;;4.78;2.90;;;;;;;;;;4981188;28;20042;-77
2021/08/26 03:11:14;;;;;;;4.90;3.17;;;;;;;;;;4983136;28;20042;-77
2021/08/26 03:13:41;;;;;;;5.22;3.03;;;;;;;;;;4981951;28;20058;-76
2021/08/26 03:16:09;;;;;;;6.28;4.05;;;;;;;;;;4976251;28;20054;-77
2021/08/26 03:18:36;;;;;;;5.88;2.50;;;;;;;;;;4964977;28;20038;-77
2021/08/26 03:21:03;;;;;;;8.63;4.47;;;;;;;;;;4964393;28;20043;-76
2021/08/26 03:23:30;;;;;;;10.32;4.22;;;;;;;;;;4963204;28;20057;-76
2021/08/26 03:25:57;;;;;;;4.72;2.67;;;;;;;;;;4979274;28;20054;-77
2021/08/26 03:28:24;;;;;;;3.42;2.20;;;;;;;;;;4964450;28;20122;-77
2021/08/26 03:30:52;;;;;;;3.63;2.17;;;;;;;;;;4963503;28;20398;-77
2021/08/26 03:33:19;;;;;;;3.55;1.90;;;;;;;;;;4964239;28;20043;-77
2021/08/26 03:35:48;;;;;;;5.82;2.15;;;;;;;;;;4968185;28;20541;-77
2021/08/26 03:38:17;;;;;;;4.45;2.70;;;;;;;;;;4968203;28;20122;-77
2021/08/26 03:40:44;;;;;;;6.13;3.10;;;;;;;;;;4968301;28;20051;-77
2021/08/26 03:43:13;;;;;;;6.90;3.85;;;;;;;;;;4966282;28;20070;-77
2021/08/26 03:45:40;;;;;;;1.95;1.35;;;;;;;;;;4983345;28;20042;-77
2021/08/26 03:48:07;;;;;;;2.17;1.25;;;;;;;;;;4967865;28;20039;-77
2021/08/26 03:50:34;;;;;;;2.22;1.25;;;;;;;;;;4967377;28;20043;-77
2021/08/26 03:53:01;;;;;;;2.70;1.20;;;;;;;;;;4982775;28;20035;-77
2021/08/26 03:55:29;;;;;;;2.63;1.42;;;;;;;;;;4967817;28;20528;-76
2021/08/26 03:57:57;;;;;;;1.83;1.08;;;;;;;;;;4968150;28;20047;-77
2021/08/26 04:00:24;;;;;;;2.75;1.25;;;;;;;;;;4982262;28;20513;-77
2021/08/26 04:02:51;;;;;;;2.55;1.25;;;;;;;;;;4967359;28;20125;-77
2021/08/26 04:05:18;;;;;;;2.63;1.05;;;;;;;;;;4966252;28;20070;-77
2021/08/26 04:07:45;;;;;;;2.63;1.40;;;;;;;;;;4967535;28;20481;-76
2021/08/26 04:10:16;;;;;;;2.30;1.50;;;;;;;;;;4966474;28;20113;-76
2021/08/26 04:12:43;;;;;;;1.73;0.93;;;;;;;;;;4967733;28;20039;-76
2021/08/26 04:15:10;;;;;;;1.45;0.80;;;;;;;;;;4967483;28;20509;-76
2021/08/26 04:17:37;;;;;;;0.73;0.57;;;;;;;;;;4968046;28;20122;-76
2021/08/26 04:20:05;;;;;;;0.52;0.50;;;;;;;;;;4967243;28;20042;-76
2021/08/26 04:22:32;;;;;;;1.30;0.50;;;;;;;;;;4981984;28;20050;-76
2021/08/26 04:24:59;;;;;;;1.65;1.00;;;;;;;;;;4966340;28;20043;-77
2021/08/26 04:27:27;;;;;;;1.70;0.80;;;;;;;;;;4967463;28;20778;-76
2021/08/26 04:29:54;;;;;;;2.35;0.88;;;;;;;;;;4967843;28;20173;-76
2021/08/26 04:32:21;;;;;;;1.00;0.50;;;;;;;;;;4965700;28;20050;-76
2021/08/26 04:34:48;;;;;;;2.20;1.10;;;;;;;;;;4967074;28;20055;-76
2021/08/26 04:37:16;;;;;;;1.85;1.10;;;;;;;;;;4967602;28;20118;-76
2021/08/26 04:39:43;;;;;;;4.75;1.67;;;;;;;;;;4966865;28;20043;-76
2021/08/26 04:42:11;;;;;;;3.65;1.27;;;;;;;;;;4981826;28;20046;-76
2021/08/26 04:44:39;;;;;;;2.03;0.80;;;;;;;;;;4966695;28;20409;-76
2021/08/26 04:47:06;;;;;;;2.05;0.73;;;;;;;;;;4967019;28;20051;-76
2021/08/26 04:49:33;;;;;;;1.02;0.57;;;;;;;;;;4967174;28;20126;-76
2021/08/26 04:52:00;;;;;;;0.90;0.50;;;;;;;;;;4965587;28;20047;-76
2021/08/26 04:54:27;;;;;;;0.40;0.38;;;;;;;;;;4965565;28;20504;-76
2021/08/26 04:56:54;;;;;;;2.65;0.70;;;;;;;;;;4965247;28;20047;-76
2021/08/26 04:59:22;;;;;;;1.63;0.50;;;;;;;;;;4967420;28;20401;-76
2021/08/26 05:01:49;;;;;;;0.75;0.50;;;;;;;;;;4966656;28;20138;-76
2021/08/26 05:04:23;;;;;;;0.85;0.40;;;;;;;;;;4966479;28;20054;-76
2021/08/26 05:06:51;;;;;;;0.90;0.60;;;;;;;;;;4966604;28;20046;-76
2021/08/26 05:09:19;;;;;;;1.65;0.50;;;;;;;;;;4966734;28;20417;-76
2021/08/26 05:11:47;;;;;;;1.30;0.80;;;;;;;;;;4981564;28;20412;-76
2021/08/26 05:14:14;;;;;;;0.57;0.32;;;;;;;;;;4966450;28;20121;-76
2021/08/26 05:16:41;;;;;;;0.82;0.30;;;;;;;;;;4966233;28;20070;-76
2021/08/26 05:19:08;;;;;;;1.08;0.50;;;;;;;;;;4966865;28;20047;-77
2021/08/26 05:21:35;;;;;;;0.50;0.50;;;;;;;;;;4965939;28;20039;-76
2021/08/26 05:24:03;;;;;;;0.20;0.20;;;;;;;;;;4964973;28;20200;-76
2021/08/26 05:26:30;;;;;;;1.83;0.38;;;;;;;;;;4964799;28;20035;-76
2021/08/26 05:28:57;;;;;;;0.52;0.25;;;;;;;;;;4966370;28;20104;-76
2021/08/26 05:31:24;;;;;;;0.47;0.20;;;;;;;;;;4966788;28;20031;-76
2021/08/26 05:33:51;;;;;;;1.02;0.40;;;;;;;;;;4966149;28;20045;-76
2021/08/26 05:36:18;;;;;;;1.95;0.30;;;;;;;;;;4964387;28;20057;-76
2021/08/26 05:38:46;;;;;;;0.63;0.30;;;;;;;;;;4965394;28;20481;-76
2021/08/26 05:41:13;;;;;;;1.48;0.40;;;;;;;;;;4964550;28;20047;-77
2021/08/26 05:43:40;;;;;;;1.15;0.28;;;;;;;;;;4966436;28;20166;-76
2021/08/26 05:46:08;;;;;;;1.70;0.30;;;;;;;;;;4964060;28;20516;-76
2021/08/26 05:48:35;;;;;;;0.95;0.40;;;;;;;;;;4965516;28;20490;-76
2021/08/26 05:51:03;;;;;;;0.43;0.17;;;;;;;;;;4966558;28;20063;-76
2021/08/26 05:53:31;;;;;;;0.93;0.20;;;;;;;;;;4965786;28;20174;-76
2021/08/26 05:55:58;;;;;;;0.50;0.40;;;;;;;;;;4964808;28;20117;-77
2021/08/26 05:58:25;;;;;;;0.30;0.13;;;;;;;;;;4964081;28;20038;-76
2021/08/26 06:00:57;;;;;;;0.57;0.40;;;;;;;;;;4965687;28;20501;-76
2021/08/26 06:03:24;;;;;;;1.45;0.28;;;;;;;;;;4965513;28;20047;-76
2021/08/26 06:05:51;;;;;;;1.00;0.20;;;;;;;;;;4965548;28;20046;-77
2021/08/26 06:08:18;;;;;;;0.20;0.20;;;;;;;;;;4965968;28;20170;-76
2021/08/26 06:10:46;;;;;;;1.00;0.43;;;;;;;;;;4980426;28;20043;-76
2021/08/26 06:13:13;;;;;;;1.38;0.40;;;;;;;;;;4964091;28;20039;-77
2021/08/26 06:15:40;;;;;;;1.90;0.40;;;;;;;;;;4965916;28;20041;-77
2021/08/26 06:18:07;;;;;;;1.40;0.70;;;;;;;;;;4980008;28;20046;-76
2021/08/26 06:20:36;;;;;;;0.70;0.47;;;;;;;;;;4980059;28;20505;-76
2021/08/26 06:23:05;;;;;;;;;;;;;;;;;;4965888;28;20042;-76
2021/08/26 06:25:32;;;;;;;0.38;0.25;;;;;;;;;;4965486;28;20364;-77
2021/08/26 06:28:00;;;;;;;0.28;0.22;;;;;;;;;;4965558;28;20035;-76
2021/08/26 06:30:27;;;;;;;2.65;0.52;;;;;;;;;;4979742;28;20035;-76
2021/08/26 06:32:54;;;;;;;2.42;0.40;;;;;;;;;;4964902;28;20043;-76
2021/08/26 06:35:22;;;;;;;1.60;0.30;;;;;;;;;;4965483;28;20509;-77
2021/08/26 06:37:49;;;;;;;1.85;0.30;;;;;;;;;;4964698;28;20031;-76
2021/08/26 06:40:16;;;;;;;0.15;0.10;;;;;;;;;;4979257;28;20082;-76
2021/08/26 06:42:44;;;;;;;0.73;0.20;;;;;;;;;;4965059;28;20142;-76
2021/08/26 06:45:12;;;;;;;0.52;0.38;;;;;;;;;;4963317;28;20512;-77
2021/08/26 06:47:39;;;;;;;2.40;0.70;;;;;;;;;;4965241;28;20039;-76
2021/08/26 06:50:07;;;;;;;0.52;0.50;;;;;;;;;;4965068;28;20046;-77
2021/08/26 06:52:34;;;;;;;0.52;0.47;;;;;;;;;;4964645;28;20051;-77
2021/08/26 06:55:01;;;;;;;0.75;0.40;;;;;;;;;;4963358;28;20050;-77
2021/08/26 06:57:29;;;;;;;1.08;0.30;;;;;;;;;;4963093;28;20039;-76
2021/08/26 06:59:56;;;;;;;1.10;0.20;;;;;;;;;;4962998;28;20167;-77
2021/08/26 07:02:24;;;;;;;0.25;0.20;;;;;;;;;;4964876;28;20043;-77
2021/08/26 07:04:51;;;;;;;0.30;0.17;;;;;;;;;;4963053;28;20780;-76
2021/08/26 07:07:18;;;;;;;0.38;0.10;;;;;;;;;;4964926;28;20066;-77
2021/08/26 07:09:45;;;;;;;0.93;0.30;;;;;;;;;;4969051;28;20046;-77
2021/08/26 07:12:12;;;;;;;0.25;0.20;;;;;;;;;;4968899;28;20618;-76
2021/08/26 07:14:40;;;;;;;0.52;0.22;;;;;;;;;;4969063;28;20508;-76
2021/08/26 07:17:07;;;;;;;0.40;0.20;;;;;;;;;;4968810;28;20039;-77
2021/08/26 07:19:34;;;;;;;0.17;0.17;;;;;;;;;;4968446;28;20532;-77
2021/08/26 07:22:02;;;;;;;0.28;0.13;;;;;;;;;;4967292;28;20050;-77
2021/08/26 07:24:30;;;;;;;0.28;0.20;;;;;;;;;;4968496;28;20050;-77
2021/08/26 07:26:57;;;;;;;0.85;0.30;;;;;;;;;;4982874;28;20039;-76
2021/08/26 07:29:25;;;;;;;0.98;0.20;;;;;;;;;;4969032;28;20046;-77
2021/08/26 07:31:52;;;;;;;1.30;0.30;;;;;;;;;;4968081;28;20494;-77
2021/08/26 07:34:19;;;;;;;1.17;0.40;;;;;;;;;;4966327;28;20058;-76
2021/08/26 07:36:46;;;;;;;1.23;0.40;;;;;;;;;;4968415;28;20062;-76
2021/08/26 07:39:13;;;;;;;0.95;0.47;;;;;;;;;;4968207;28;20448;-77
2021/08/26 07:41:41;;;;;;;1.67;0.85;;;;;;;;;;4968577;28;20054;-77
2021/08/26 07:44:08;;;;;;;4.28;1.10;;;;;;;;;;4968318;28;20066;-77
2021/08/26 07:46:36;;;;;;;2.75;0.98;;;;;;;;;;4966465;28;20066;-76
2021/08/26 07:49:05;;;;;;;2.78;0.98;;;;;;;;;;4968302;28;20043;-76
2021/08/26 07:51:32;;;;;;;2.97;0.80;;;;;;;;;;4965960;28;20039;-77
2021/08/26 07:53:59;;;;;;;2.97;1.00;;;;;;;;;;4967393;28;20047;-77
2021/08/26 07:56:26;;;;;;;1.73;0.73;;;;;;;;;;4967805;28;20545;-77
2021/08/26 07:58:53;;;;;;;2.72;0.85;;;;;;;;;;4967359;28;20058;-77
2021/08/26 08:01:20;;;;;;;3.75;1.33;;;;;;;;;;4966571;28;20043;-76
2021/08/26 08:03:48;;;;;;;3.28;1.23;;;;;;;;;;4967867;28;20043;-76
2021/08/26 08:06:16;;;;;;;5.03;1.77;;;;;;;;;;4982441;28;20051;-76
2021/08/26 08:08:43;;;;;;;5.15;1.58;;;;;;;;;;4968054;28;20043;-76
2021/08/26 08:11:10;;;;;;;3.35;1.30;;;;;;;;;;4967964;28;20062;-76
2021/08/26 08:13:38;;;;;;;3.28;1.40;;;;;;;;;;4965997;28;20041;-76
2021/08/26 08:16:05;;;;;;;4.45;1.48;;;;;;;;;;4967988;28;20038;-76
2021/08/26 08:18:32;;;;;;;5.88;2.00;;;;;;;;;;4981995;28;20121;-76
2021/08/26 08:21:02;;;;;;;7.82;2.80;;;;;;;;;;4966140;28;20055;-76
2021/08/26 08:23:30;;;;;;;6.63;2.65;;;;;;;;;;4965805;28;20047;-76
2021/08/26 08:25:57;;;;;;;5.28;2.03;;;;;;;;;;4967220;28;20038;-76
2021/08/26 08:28:25;;;;;;;5.88;2.40;;;;;;;;;;4966940;28;20043;-76
2021/08/26 08:30:52;;;;;;;6.30;2.75;;;;;;;;;;4994100;28;20042;-76
2021/08/26 08:33:19;;;;;;;6.88;2.42;;;;;;;;;;4967576;28;20065;-76
2021/08/26 08:35:46;;;;;;;7.38;2.08;;;;;;;;;;4967008;28;20130;-76
2021/08/26 08:38:14;;;;;;;4.70;1.98;;;;;;;;;;4967538;28;20051;-76
2021/08/26 08:40:47;;;;;;;4.85;1.98;;;;;;;;;;4967148;28;20061;-76
2021/08/26 08:43:15;;;;;;;9.35;3.25;;;;;;;;;;4969430;28;20085;-76
2021/08/26 08:45:46;;;;;;;9.93;4.35;;;;;;;;;;4975099;28;20413;-77
2021/08/26 08:48:13;;;;;;;11.85;4.18;;;;;;;;;;4967106;28;20045;-76
2021/08/26 08:50:42;;;;;;;6.65;2.60;;;;;;;;;;4967507;28;20101;-77
2021/08/26 08:53:14;;;;;;;9.55;3.67;;;;;;;;;;4967193;28;20441;-77
2021/08/26 08:55:45;;;;;;;11.95;4.10;;;;;;;;;;4981717;28;20042;-77
2021/08/26 08:58:13;;;;;;;9.20;3.05;;;;;;;;;;4966897;28;20110;-77
2021/08/26 09:00:40;;;;;;;8.10;2.63;;;;;;;;;;4964535;28;20101;-77
2021/08/26 09:03:08;;;;;;;8.77;2.78;;;;;;;;;;4973548;28;20097;-77
2021/08/26 09:05:52;;;;;;;8.07;3.00;;;;;;;;;;4967786;28;20113;-77
2021/08/26 09:08:21;;;;;;;8.13;3.97;;;;;;;;;;4970686;28;20070;-77
2021/08/26 09:10:53;;;;;;;8.32;4.43;;;;;;;;;;4985963;28;20085;-77
2021/08/26 09:13:34;;;;;;;10.93;4.97;;;;;;;;;;4985656;28;20125;-77
2021/08/26 09:16:01;;;;;;;7.50;3.83;;;;;;;;;;4985614;28;20512;-76
2021/08/26 09:18:30;;;;;;;6.78;3.38;;;;;;;;;;4985743;28;20049;-77
2021/08/26 09:21:01;;;;;;;5.78;2.17;;;;;;;;;;5001019;28;20121;-76
2021/08/26 09:23:31;;;;;;;6.72;2.85;;;;;;;;;;4986112;28;20038;-77
2021/08/26 09:26:19;;;;;;;6.80;3.67;;;;;;;;;;5000186;28;20046;-77
2021/08/26 09:28:46;;;;;;;7.25;2.88;;;;;;;;;;4999895;28;20046;-77
2021/08/26 09:31:25;;;;;;;7.95;2.67;;;;;;;;;;4985534;28;20505;-77
2021/08/26 09:33:58;;;;;;;4.00;1.63;;;;;;;;;;5000271;28;20397;-75
2021/08/26 09:36:30;;;;;;;5.00;1.25;;;;;;;;;;4985096;28;20041;-76
2021/08/26 09:39:13;;;;;;;4.70;1.60;;;;;;;;;;4985347;28;20125;-77
2021/08/26 09:42:15;;;;;;;4.47;1.80;;;;;;;;;;4984959;28;20129;-76
2021/08/26 09:44:42;;;;;;;3.92;1.67;;;;;;;;;;4985757;28;20054;-77
2021/08/26 09:47:10;;;;;;;5.15;1.60;;;;;;;;;;4987629;28;20493;-77
2021/08/26 09:49:39;;;;;;;4.00;1.70;;;;;;;;;;4985248;28;20061;-77
2021/08/26 09:52:13;;;;;;;4.20;1.80;;;;;;;;;;4967242;28;20046;-77
2021/08/26 09:54:45;;;;;;;2.80;1.40;;;;;;;;;;4949775;28;20417;-76
2021/08/26 09:57:39;;;;;;;4.18;1.42;;;;;;;;;;4974841;28;20035;-76
2021/08/26 10:00:07;;;;;;;2.40;1.10;;;;;;;;;;4962177;28;20045;-77
2021/08/26 10:02:46;;;;;;;4.60;1.40;;;;;;;;;;4983688;28;20081;-77
2021/08/26 10:05:14;;;;;;;3.42;1.67;;;;;;;;;;4985185;28;20030;-77
2021/08/26 10:07:45;;;;;;;4.85;1.98;;;;;;;;;;4985404;28;20057;-77
2021/08/26 10:10:13;;;;;;;3.40;2.00;;;;;;;;;;4985534;28;20042;-76
2021/08/26 10:12:40;;;;;;;4.47;1.48;;;;;;;;;;4985675;28;20045;-77
2021/08/26 10:15:10;;;;;;;3.33;1.13;;;;;;;;;;4985061;28;20042;-76
2021/08/26 10:17:38;;;;;;;3.53;1.60;;;;;;;;;;4984219;28;20045;-76
2021/08/26 10:20:07;;;;;;;5.63;2.30;;;;;;;;;;4982947;28;21327;-77
2021/08/26 10:22:34;;;;;;;6.53;1.80;;;;;;;;;;4999666;28;20447;-77
2021/08/26 10:25:02;;;;;;;6.68;1.58;;;;;;;;;;4989571;28;20587;-77
2021/08/26 10:27:32;;;;;;;7.90;1.70;;;;;;;;;;4984866;28;20121;-76
2021/08/26 10:29:59;;;;;;;4.25;1.23;;;;;;;;;;4982488;28;20066;-78
2021/08/26 10:32:27;;;;;;;4.25;1.58;;;;;;;;;;4984488;28;20551;-77
2021/08/26 10:35:07;;;;;;;4.07;1.50;;;;;;;;;;4984577;28;20056;-77
2021/08/26 10:37:55;;;;;;;5.78;1.52;;;;;;;;;;4984241;28;20504;-77
2021/08/26 10:40:33;;;;;;;6.85;2.00;;;;;;;;;;4998865;28;20103;-77
2021/08/26 10:43:01;;;;;;;5.15;1.60;;;;;;;;;;4983206;28;20085;-77
2021/08/26 10:45:33;;;;;;;4.97;1.50;;;;;;;;;;4998718;28;20045;-77
2021/08/26 10:48:01;;;;;;;5.70;1.88;;;;;;;;;;4998758;28;20444;-78
2021/08/26 10:50:33;;;;;;;7.35;2.25;;;;;;;;;;4998765;28;20492;-77
2021/08/26 10:53:05;;;;;;;6.78;2.08;;;;;;;;;;4998697;28;20066;-77
2021/08/26 10:55:41;;;;;;;5.82;1.77;;;;;;;;;;4983966;28;20129;-77
2021/08/26 11:00:53;;;;;;;5.55;1.98;;;;;;;;;;4998437;28;20047;-77
2021/08/26 11:03:35;;;;;;;7.03;2.40;;;;;;;;;;4998634;28;20491;-77
2021/08/26 11:06:22;;;;;;;8.05;2.15;;;;;;;;;;4984230;28;20038;-78
2021/08/26 11:08:53;;;;;;;11.15;2.85;;;;;;;;;;4997832;28;20046;-78
2021/08/26 11:11:45;;;;;;;8.02;2.92;;;;;;;;;;4996389;28;20460;-77
2021/08/26 11:14:18;;;;;;;12.02;2.58;;;;;;;;;;4982500;28;20117;-77
2021/08/26 11:16:51;;;;;;;9.15;3.30;;;;;;;;;;4982474;28;20054;-77
2021/08/26 11:19:18;;;;;;;8.27;2.47;;;;;;;;;;4982558;28;20046;-78
2021/08/26 11:21:45;;;;;;;12.13;3.33;;;;;;;;;;4982243;28;20057;-77
2021/08/26 11:24:22;;;;;;;9.95;2.50;;;;;;;;;;5002038;28;20591;-76
2021/08/26 11:26:49;;;;;;;9.63;2.88;;;;;;;;;;4994393;28;20130;-75
2021/08/26 11:29:25;;;;;;;9.68;3.45;;;;;;;;;;4979961;28;20050;-76
2021/08/26 11:31:55;;;;;;;8.27;3.50;;;;;;;;;;4996886;28;20049;-77
2021/08/26 11:34:34;;;;;;;9.98;3.20;;;;;;;;;;4975904;28;20051;-77
2021/08/26 11:37:07;;;;;;;8.07;3.42;;;;;;;;;;4975015;28;20085;-77
2021/08/26 11:39:43;;;;;;;9.75;3.33;;;;;;;;;;4981614;28;20050;-77
2021/08/26 11:42:24;;;;;;;7.65;3.10;;;;;;;;;;4979881;28;20043;-76
2021/08/26 11:45:25;;;;;;;8.25;3.20;;;;;;;;;;4971011;28;20046;-71
2021/08/26 11:48:03;;;;;;;8.40;2.85;;;;;;;;;;4943234;28;20152;-72
2021/08/26 11:50:38;;;;;;;9.23;3.30;;;;;;;;;;4966092;28;20112;-73
2021/08/26 11:53:11;;;;;;;9.23;2.83;;;;;;;;;;4979919;28;20053;-71
2021/08/26 11:55:40;;;;;;;13.35;4.25;;;;;;;;;;4983780;28;20517;-71
2021/08/26 11:58:12;;;;;;;7.85;2.47;;;;;;;;;;4959990;28;20054;-71
2021/08/26 12:00:42;;;;;;;9.05;2.50;;;;;;;;;;4959996;28;20058;-74
2021/08/26 12:03:10;;;;;;;9.68;2.65;;;;;;;;;;4956811;28;20096;-69
2021/08/26 12:05:41;;;;;;;8.23;2.80;;;;;;;;;;4957840;28;20050;-72
2021/08/26 12:08:09;;;;;;;10.80;2.80;;;;;;;;;;4957801;28;20557;-70
2021/08/26 12:10:44;;;;;;;7.65;2.97;;;;;;;;;;4955878;28;20050;-72
2021/08/26 12:13:22;;;;;;;9.60;3.30;;;;;;;;;;4955636;28;21273;-70
2021/08/26 12:15:53;;;;;;;8.65;2.55;;;;;;;;;;4958437;28;20030;-71
2021/08/26 12:18:29;;;;;;;9.48;2.58;;;;;;;;;;4955136;28;20046;-72
2021/08/26 12:21:09;;;;;;;10.55;2.70;;;;;;;;;;4956818;28;20069;-70
2021/08/26 12:23:40;;;;;;;8.27;2.80;;;;;;;;;;4954490;28;20042;-70
2021/08/26 12:26:15;;;;;;;5.97;2.53;;;;;;;;;;4960305;28;20097;-71
2021/08/26 12:28:44;;;;;;;6.30;2.28;;;;;;;;;;4961071;28;20038;-71
2021/08/26 12:31:14;;;;;;;7.45;2.78;;;;;;;;;;4950398;28;22097;-70
2021/08/26 12:34:08;;;;;;;8.30;2.90;;;;;;;;;;4957873;28;20062;-71
2021/08/26 12:36:37;;;;;;;8.13;2.50;;;;;;;;;;4971633;28;20959;-73
2021/08/26 12:39:21;;;;;;;6.85;2.35;;;;;;;;;;4959554;28;20558;-74
2021/08/26 12:42:19;;;;;;;6.68;2.50;;;;;;;;;;4956768;28;20105;-71
2021/08/26 12:44:48;;;;;;;7.20;2.13;;;;;;;;;;4971409;28;20086;-71
2021/08/26 12:47:31;;;;;;;8.40;2.22;;;;;;;;;;4972403;28;20555;-71
2021/08/26 12:49:59;;;;;;;9.02;2.85;;;;;;;;;;4959207;28;20047;-72
2021/08/26 12:52:38;;;;;;;8.40;2.00;;;;;;;;;;4959900;28;20046;-72
2021/08/26 12:55:09;;;;;;;5.65;1.90;;;;;;;;;;4970899;28;20051;-72
2021/08/26 12:57:36;;;;;;;6.70;2.15;;;;;;;;;;4957651;28;20188;-74
2021/08/26 13:00:05;;;;;;;6.90;2.10;;;;;;;;;;4954853;28;20506;-71
2021/08/26 13:02:32;;;;;;;6.85;2.10;;;;;;;;;;4956637;28;20062;-70
2021/08/26 13:05:07;;;;;;;5.85;2.45;;;;;;;;;;4971956;28;20093;-70
2021/08/26 13:07:36;;;;;;;4.43;1.48;;;;;;;;;;4957515;28;20575;-72
2021/08/26 13:10:07;;;;;;;;;;;;;;;;;;4943478;28;20053;-74
2021/08/26 13:12:34;;;;;;;7.20;2.17;;;;;;;;;;4960025;28;19926;-72
2021/08/26 13:15:03;;;;;;;7.05;2.47;;;;;;;;;;4960078;28;20100;-72
2021/08/26 13:17:30;;;;;;;;;;;;;;;;;;4960473;28;20127;-76
2021/08/26 13:20:00;;;;;;;8.00;2.08;;;;;;;;;;4959097;28;19929;-73
2021/08/26 13:22:36;;;;;;;4.28;1.73;;;;;;;;;;4959631;28;20631;-76
2021/08/26 13:25:08;;;;;;;7.68;2.00;;;;;;;;;;4951288;28;21329;-71
2021/08/26 13:27:37;;;;;;;4.13;1.60;;;;;;;;;;4965118;28;20050;-71
2021/08/26 13:30:07;;;;;;;6.18;1.60;;;;;;;;;;4958090;28;20053;-73
2021/08/26 13:32:34;;;;;;;6.25;2.20;;;;;;;;;;4958991;28;20054;-72
2021/08/26 13:35:08;;;;;;;5.85;2.47;;;;;;;;;;4960585;28;20426;-73
2021/08/26 13:37:36;;;;;;;9.20;2.53;;;;;;;;;;4959646;28;20423;-72
2021/08/26 13:40:03;;;;;;;;;;;;;;;;;;4960431;28;20474;-72
2021/08/26 13:42:30;;;;;;;;;;;;;;;;;;4973764;28;20470;-75
2021/08/26 13:44:58;;;;;;;7.38;1.70;;;;;;;;;;4958346;28;19929;-71
2021/08/26 13:47:25;;;;;;;6.63;1.70;;;;;;;;;;4957888;28;20046;-73
2021/08/26 13:49:52;;;;;;;7.25;2.00;;;;;;;;;;4953996;28;20051;-71
2021/08/26 13:52:19;;;;;;;8.10;2.00;;;;;;;;;;4972065;28;20113;-71
2021/08/26 13:54:46;;;;;;;5.68;1.90;;;;;;;;;;4971735;28;20046;-71
2021/08/26 13:57:13;;;;;;;9.68;1.92;;;;;;;;;;4952389;28;20058;-72
2021/08/26 13:59:42;;;;;;;6.38;1.88;;;;;;;;;;4955543;28;20070;-71
2021/08/26 14:02:09;;;;;;;4.65;2.10;;;;;;;;;;4954776;28;20073;-71
2021/08/26 14:04:36;;;;;;;5.88;2.13;;;;;;;;;;4956177;28;20078;-72
2021/08/26 14:07:06;;;;;;;8.18;2.20;;;;;;;;;;4955351;28;20042;-73
2021/08/26 14:09:33;;;;;;;6.30;2.05;;;;;;;;;;4956633;28;20043;-71
2021/08/26 14:12:02;;;;;;;5.40;1.98;;;;;;;;;;4955723;28;20153;-73
2021/08/26 14:14:29;;;;;;;5.80;1.98;;;;;;;;;;4972107;28;20154;-71
2021/08/26 14:16:59;;;;;;;7.97;2.08;;;;;;;;;;4956709;28;20058;-72
2021/08/26 14:19:26;;;;;;;8.57;1.88;;;;;;;;;;4958528;28;20069;-75
2021/08/26 14:21:53;;;;;;;5.32;1.65;;;;;;;;;;4958997;28;20531;-75
2021/08/26 14:24:20;;;;;;;6.18;2.35;;;;;;;;;;4957791;28;20038;-72
2021/08/26 14:26:47;;;;;;;5.43;2.10;;;;;;;;;;4956132;28;20042;-70
2021/08/26 14:29:14;;;;;;;8.90;2.72;;;;;;;;;;4957082;28;20101;-72
2021/08/26 14:31:41;;;;;;;7.93;2.17;;;;;;;;;;4955570;28;22917;-71
2021/08/26 14:34:09;;;;;;;5.88;2.50;;;;;;;;;;4956163;28;20137;-74
2021/08/26 14:36:36;;;;;;;6.53;2.10;;;;;;;;;;4955715;28;20768;-73
2021/08/26 14:39:05;;;;;;;9.20;3.28;;;;;;;;;;4958337;28;20118;-71
2021/08/26 14:41:33;;;;;;;6.60;1.80;;;;;;;;;;4956760;28;20048;-76
2021/08/26 14:44:00;;;;;;;10.77;2.92;;;;;;;;;;4957787;28;20120;-72
2021/08/26 14:46:27;;;;;;;15.00;6.45;;;;;;;;;;4965415;28;20531;-72
2021/08/26 14:48:54;;;;;;;11.23;5.10;;;;;;;;;;4978087;28;20162;-72
2021/08/26 14:51:21;;;;;;;10.95;3.30;;;;;;;;;;4980032;28;20097;-73
2021/08/26 14:53:48;;;;;;;4.93;1.83;;;;;;;;;;4982527;28;20049;-71
2021/08/26 14:56:16;;;;;;;12.05;3.53;;;;;;;;;;4981862;28;20070;-72
2021/08/26 14:58:43;;;;;;;11.52;3.58;;;;;;;;;;4981877;28;20057;-74
2021/08/26 15:01:10;;;;;;;6.63;3.00;;;;;;;;;;4983202;28;20452;-72
2021/08/26 15:03:37;;;;;;;10.38;2.80;;;;;;;;;;4997575;28;20038;-71
2021/08/26 15:06:04;;;;;;;8.23;2.80;;;;;;;;;;4983590;28;20039;-73